sensor_id;sensor_type;location;lat;lon;timestamp;P1;durP1;ratioP1;P2;durP2;ratioP2
25263;SDS011;13211;51.796;5.808;2023-07-29T00:00:36;15.57;;;10.57;;
25263;SDS011;13211;51.796;5.808;2023-07-29T00:03:07;17.55;;;11.80;;
25263;SDS011;13211;51.796;5.808;2023-07-29T00:05:36;17.42;;;12.57;;
25263;SDS011;13211;51.796;5.808;2023-07-29T00:08:04;18.30;;;12.68;;
25263;SDS011;13211;51.796;5.808;2023-07-29T00:10:35;18.23;;;11.70;;
25263;SDS011;13211;51.796;5.808;2023-07-29T00:13:05;15.93;;;12.15;;
25263;SDS011;13211;51.796;5.808;2023-07-29T00:15:42;18.57;;;12.67;;
25263;SDS011;13211;51.796;5.808;2023-07-29T00:18:09;17.33;;;12.35;;
25263;SDS011;13211;51.796;5.808;2023-07-29T00:20:37;18.13;;;13.57;;
25263;SDS011;13211;51.796;5.808;2023-07-29T00:23:05;15.88;;;12.48;;
25263;SDS011;13211;51.796;5.808;2023-07-29T00:25:33;15.65;;;12.30;;
25263;SDS011;13211;51.796;5.808;2023-07-29T00:28:00;16.42;;;12.50;;
25263;SDS011;13211;51.796;5.808;2023-07-29T00:30:28;17.27;;;11.85;;
25263;SDS011;13211;51.796;5.808;2023-07-29T00:32:57;17.58;;;11.90;;
25263;SDS011;13211;51.796;5.808;2023-07-29T00:35:25;21.08;;;11.73;;
25263;SDS011;13211;51.796;5.808;2023-07-29T00:40:28;15.88;;;11.45;;
25263;SDS011;13211;51.796;5.808;2023-07-29T00:42:56;13.57;;;10.00;;
25263;SDS011;13211;51.796;5.808;2023-07-29T00:45:24;13.10;;;9.88;;
25263;SDS011;13211;51.796;5.808;2023-07-29T00:47:53;15.80;;;9.63;;
25263;SDS011;13211;51.796;5.808;2023-07-29T00:50:21;16.38;;;8.98;;
25263;SDS011;13211;51.796;5.808;2023-07-29T00:52:49;13.35;;;10.50;;
25263;SDS011;13211;51.796;5.808;2023-07-29T00:55:17;15.50;;;9.68;;
25263;SDS011;13211;51.796;5.808;2023-07-29T00:57:45;16.00;;;10.68;;
25263;SDS011;13211;51.796;5.808;2023-07-29T01:00:15;17.03;;;11.97;;
25263;SDS011;13211;51.796;5.808;2023-07-29T01:02:45;15.95;;;11.40;;
25263;SDS011;13211;51.796;5.808;2023-07-29T01:05:14;13.30;;;10.55;;
25263;SDS011;13211;51.796;5.808;2023-07-29T01:07:48;15.70;;;10.77;;
25263;SDS011;13211;51.796;5.808;2023-07-29T01:13:17;13.50;;;10.43;;
25263;SDS011;13211;51.796;5.808;2023-07-29T01:15:53;13.90;;;9.77;;
25263;SDS011;13211;51.796;5.808;2023-07-29T01:18:28;16.30;;;9.93;;
25263;SDS011;13211;51.796;5.808;2023-07-29T01:20:59;17.85;;;10.68;;
25263;SDS011;13211;51.796;5.808;2023-07-29T01:23:36;14.60;;;10.25;;
25263;SDS011;13211;51.796;5.808;2023-07-29T01:26:04;13.95;;;10.38;;
25263;SDS011;13211;51.796;5.808;2023-07-29T01:28:32;14.80;;;10.32;;
25263;SDS011;13211;51.796;5.808;2023-07-29T01:31:21;22.52;;;10.57;;
25263;SDS011;13211;51.796;5.808;2023-07-29T01:36:40;18.70;;;10.00;;
25263;SDS011;13211;51.796;5.808;2023-07-29T01:39:13;12.40;;;9.00;;
25263;SDS011;13211;51.796;5.808;2023-07-29T01:41:42;12.95;;;8.98;;
25263;SDS011;13211;51.796;5.808;2023-07-29T01:44:11;13.93;;;9.40;;
25263;SDS011;13211;51.796;5.808;2023-07-29T01:46:40;15.65;;;10.25;;
25263;SDS011;13211;51.796;5.808;2023-07-29T01:49:07;18.42;;;10.85;;
25263;SDS011;13211;51.796;5.808;2023-07-29T01:51:36;16.38;;;10.13;;
25263;SDS011;13211;51.796;5.808;2023-07-29T01:54:04;16.08;;;10.60;;
25263;SDS011;13211;51.796;5.808;2023-07-29T01:56:31;17.60;;;10.70;;
25263;SDS011;13211;51.796;5.808;2023-07-29T01:59:01;15.93;;;11.20;;
25263;SDS011;13211;51.796;5.808;2023-07-29T02:01:31;19.42;;;12.68;;
25263;SDS011;13211;51.796;5.808;2023-07-29T02:03:59;15.32;;;11.25;;
25263;SDS011;13211;51.796;5.808;2023-07-29T02:06:27;18.40;;;12.77;;
25263;SDS011;13211;51.796;5.808;2023-07-29T02:08:56;16.50;;;12.13;;
25263;SDS011;13211;51.796;5.808;2023-07-29T02:11:24;19.90;;;12.45;;
25263;SDS011;13211;51.796;5.808;2023-07-29T02:13:55;21.75;;;14.73;;
25263;SDS011;13211;51.796;5.808;2023-07-29T02:16:23;23.55;;;14.57;;
25263;SDS011;13211;51.796;5.808;2023-07-29T02:18:51;24.48;;;17.85;;
25263;SDS011;13211;51.796;5.808;2023-07-29T02:21:22;28.75;;;17.27;;
25263;SDS011;13211;51.796;5.808;2023-07-29T02:23:50;25.40;;;16.75;;
25263;SDS011;13211;51.796;5.808;2023-07-29T02:26:18;27.65;;;15.77;;
25263;SDS011;13211;51.796;5.808;2023-07-29T02:28:46;23.33;;;15.00;;
25263;SDS011;13211;51.796;5.808;2023-07-29T02:33:44;21.63;;;13.82;;
25263;SDS011;13211;51.796;5.808;2023-07-29T02:36:13;21.35;;;11.60;;
25263;SDS011;13211;51.796;5.808;2023-07-29T02:38:41;21.30;;;12.35;;
25263;SDS011;13211;51.796;5.808;2023-07-29T02:41:09;18.85;;;12.40;;
25263;SDS011;13211;51.796;5.808;2023-07-29T02:43:41;20.40;;;11.23;;
25263;SDS011;13211;51.796;5.808;2023-07-29T02:46:09;17.83;;;10.13;;
25263;SDS011;13211;51.796;5.808;2023-07-29T02:48:38;16.00;;;9.63;;
25263;SDS011;13211;51.796;5.808;2023-07-29T02:51:06;14.45;;;8.90;;
25263;SDS011;13211;51.796;5.808;2023-07-29T02:53:34;17.08;;;9.30;;
25263;SDS011;13211;51.796;5.808;2023-07-29T02:56:03;17.17;;;9.63;;
25263;SDS011;13211;51.796;5.808;2023-07-29T02:58:33;16.52;;;9.98;;
25263;SDS011;13211;51.796;5.808;2023-07-29T03:01:01;14.52;;;9.07;;
25263;SDS011;13211;51.796;5.808;2023-07-29T03:03:30;15.65;;;9.20;;
25263;SDS011;13211;51.796;5.808;2023-07-29T03:06:03;11.73;;;9.02;;
25263;SDS011;13211;51.796;5.808;2023-07-29T03:08:31;15.30;;;9.48;;
25263;SDS011;13211;51.796;5.808;2023-07-29T03:10:58;14.23;;;8.50;;
25263;SDS011;13211;51.796;5.808;2023-07-29T03:13:27;12.35;;;8.55;;
25263;SDS011;13211;51.796;5.808;2023-07-29T03:16:03;16.27;;;8.05;;
25263;SDS011;13211;51.796;5.808;2023-07-29T03:18:31;11.20;;;7.00;;
25263;SDS011;13211;51.796;5.808;2023-07-29T03:20:59;15.43;;;7.55;;
25263;SDS011;13211;51.796;5.808;2023-07-29T03:23:27;12.45;;;7.05;;
25263;SDS011;13211;51.796;5.808;2023-07-29T03:25:56;13.27;;;6.65;;
25263;SDS011;13211;51.796;5.808;2023-07-29T03:28:26;10.15;;;6.70;;
25263;SDS011;13211;51.796;5.808;2023-07-29T03:30:56;12.55;;;6.40;;
25263;SDS011;13211;51.796;5.808;2023-07-29T03:33:25;11.55;;;6.75;;
25263;SDS011;13211;51.796;5.808;2023-07-29T03:35:53;9.85;;;5.78;;
25263;SDS011;13211;51.796;5.808;2023-07-29T03:38:21;7.95;;;5.43;;
25263;SDS011;13211;51.796;5.808;2023-07-29T03:40:50;10.75;;;5.20;;
25263;SDS011;13211;51.796;5.808;2023-07-29T03:43:18;7.35;;;5.30;;
25263;SDS011;13211;51.796;5.808;2023-07-29T03:45:46;10.15;;;5.63;;
25263;SDS011;13211;51.796;5.808;2023-07-29T03:48:14;6.38;;;4.40;;
25263;SDS011;13211;51.796;5.808;2023-07-29T03:50:41;9.38;;;4.85;;
25263;SDS011;13211;51.796;5.808;2023-07-29T03:53:12;10.13;;;4.70;;
25263;SDS011;13211;51.796;5.808;2023-07-29T03:55:40;8.10;;;4.53;;
25263;SDS011;13211;51.796;5.808;2023-07-29T03:58:09;7.93;;;4.35;;
25263;SDS011;13211;51.796;5.808;2023-07-29T04:00:38;6.13;;;4.07;;
25263;SDS011;13211;51.796;5.808;2023-07-29T04:03:08;9.25;;;4.13;;
25263;SDS011;13211;51.796;5.808;2023-07-29T04:05:36;6.63;;;3.83;;
25263;SDS011;13211;51.796;5.808;2023-07-29T04:08:06;7.75;;;3.90;;
25263;SDS011;13211;51.796;5.808;2023-07-29T04:10:45;11.40;;;4.03;;
25263;SDS011;13211;51.796;5.808;2023-07-29T04:13:12;9.00;;;4.10;;
25263;SDS011;13211;51.796;5.808;2023-07-29T04:15:40;5.30;;;3.83;;
25263;SDS011;13211;51.796;5.808;2023-07-29T04:18:08;7.55;;;4.15;;
25263;SDS011;13211;51.796;5.808;2023-07-29T04:20:36;9.32;;;4.20;;
25263;SDS011;13211;51.796;5.808;2023-07-29T04:23:04;11.82;;;4.25;;
25263;SDS011;13211;51.796;5.808;2023-07-29T04:25:32;7.07;;;3.80;;
25263;SDS011;13211;51.796;5.808;2023-07-29T04:28:03;6.60;;;3.97;;
25263;SDS011;13211;51.796;5.808;2023-07-29T04:30:32;6.05;;;4.07;;
25263;SDS011;13211;51.796;5.808;2023-07-29T04:32:59;8.00;;;4.35;;
25263;SDS011;13211;51.796;5.808;2023-07-29T04:35:28;8.27;;;4.78;;
25263;SDS011;13211;51.796;5.808;2023-07-29T04:37:56;8.48;;;4.57;;
25263;SDS011;13211;51.796;5.808;2023-07-29T04:40:23;8.15;;;4.45;;
25263;SDS011;13211;51.796;5.808;2023-07-29T04:43:10;7.60;;;4.85;;
25263;SDS011;13211;51.796;5.808;2023-07-29T04:45:42;10.13;;;4.78;;
25263;SDS011;13211;51.796;5.808;2023-07-29T04:48:10;9.30;;;5.05;;
25263;SDS011;13211;51.796;5.808;2023-07-29T04:50:38;10.80;;;5.28;;
25263;SDS011;13211;51.796;5.808;2023-07-29T04:53:08;9.70;;;5.22;;
25263;SDS011;13211;51.796;5.808;2023-07-29T04:55:36;9.50;;;5.60;;
25263;SDS011;13211;51.796;5.808;2023-07-29T04:58:04;9.63;;;5.38;;
25263;SDS011;13211;51.796;5.808;2023-07-29T05:00:32;13.23;;;6.32;;
25263;SDS011;13211;51.796;5.808;2023-07-29T05:03:00;9.93;;;5.88;;
25263;SDS011;13211;51.796;5.808;2023-07-29T05:05:29;9.82;;;5.78;;
25263;SDS011;13211;51.796;5.808;2023-07-29T05:07:58;10.25;;;5.97;;
25263;SDS011;13211;51.796;5.808;2023-07-29T05:10:26;11.15;;;5.63;;
25263;SDS011;13211;51.796;5.808;2023-07-29T05:12:53;10.43;;;6.15;;
25263;SDS011;13211;51.796;5.808;2023-07-29T05:15:24;10.20;;;5.80;;
25263;SDS011;13211;51.796;5.808;2023-07-29T05:17:54;11.80;;;6.68;;
25263;SDS011;13211;51.796;5.808;2023-07-29T05:20:23;11.95;;;6.35;;
25263;SDS011;13211;51.796;5.808;2023-07-29T05:22:56;12.68;;;6.00;;
25263;SDS011;13211;51.796;5.808;2023-07-29T05:25:24;12.23;;;6.45;;
25263;SDS011;13211;51.796;5.808;2023-07-29T05:27:55;14.05;;;6.65;;
25263;SDS011;13211;51.796;5.808;2023-07-29T05:30:25;13.23;;;6.53;;
25263;SDS011;13211;51.796;5.808;2023-07-29T05:32:53;13.35;;;6.07;;
25263;SDS011;13211;51.796;5.808;2023-07-29T05:35:24;10.77;;;5.97;;
25263;SDS011;13211;51.796;5.808;2023-07-29T05:37:51;12.98;;;5.82;;
25263;SDS011;13211;51.796;5.808;2023-07-29T05:40:21;14.07;;;6.65;;
25263;SDS011;13211;51.796;5.808;2023-07-29T05:42:49;10.48;;;5.75;;
25263;SDS011;13211;51.796;5.808;2023-07-29T05:45:28;15.07;;;6.15;;
25263;SDS011;13211;51.796;5.808;2023-07-29T05:48:00;9.10;;;5.25;;
25263;SDS011;13211;51.796;5.808;2023-07-29T05:50:28;11.25;;;6.10;;
25263;SDS011;13211;51.796;5.808;2023-07-29T05:52:55;10.35;;;5.30;;
25263;SDS011;13211;51.796;5.808;2023-07-29T05:55:25;10.20;;;6.22;;
25263;SDS011;13211;51.796;5.808;2023-07-29T05:57:55;8.98;;;5.40;;
25263;SDS011;13211;51.796;5.808;2023-07-29T06:00:24;9.65;;;6.03;;
25263;SDS011;13211;51.796;5.808;2023-07-29T06:02:52;15.32;;;6.13;;
25263;SDS011;13211;51.796;5.808;2023-07-29T06:05:21;13.52;;;6.03;;
25263;SDS011;13211;51.796;5.808;2023-07-29T06:08:07;12.57;;;6.18;;
25263;SDS011;13211;51.796;5.808;2023-07-29T06:10:36;9.45;;;5.40;;
25263;SDS011;13211;51.796;5.808;2023-07-29T06:13:04;12.55;;;6.30;;
25263;SDS011;13211;51.796;5.808;2023-07-29T06:15:33;13.38;;;5.80;;
25263;SDS011;13211;51.796;5.808;2023-07-29T06:18:04;12.65;;;6.40;;
25263;SDS011;13211;51.796;5.808;2023-07-29T06:20:32;12.05;;;5.85;;
25263;SDS011;13211;51.796;5.808;2023-07-29T06:23:00;13.20;;;6.07;;
25263;SDS011;13211;51.796;5.808;2023-07-29T06:25:29;12.23;;;6.45;;
25263;SDS011;13211;51.796;5.808;2023-07-29T06:27:56;11.00;;;6.05;;
25263;SDS011;13211;51.796;5.808;2023-07-29T06:30:25;9.93;;;5.57;;
25263;SDS011;13211;51.796;5.808;2023-07-29T06:32:52;9.55;;;5.30;;
25263;SDS011;13211;51.796;5.808;2023-07-29T06:35:22;11.05;;;5.63;;
25263;SDS011;13211;51.796;5.808;2023-07-29T06:37:51;9.07;;;4.88;;
25263;SDS011;13211;51.796;5.808;2023-07-29T06:40:19;13.55;;;5.85;;
25263;SDS011;13211;51.796;5.808;2023-07-29T06:42:46;8.13;;;4.63;;
25263;SDS011;13211;51.796;5.808;2023-07-29T06:45:14;10.88;;;5.15;;
25263;SDS011;13211;51.796;5.808;2023-07-29T06:47:42;11.45;;;4.75;;
25263;SDS011;13211;51.796;5.808;2023-07-29T06:50:09;10.50;;;4.60;;
25263;SDS011;13211;51.796;5.808;2023-07-29T06:55:14;9.20;;;5.25;;
25263;SDS011;13211;51.796;5.808;2023-07-29T06:57:42;10.13;;;5.30;;
25263;SDS011;13211;51.796;5.808;2023-07-29T07:00:10;10.70;;;5.40;;
25263;SDS011;13211;51.796;5.808;2023-07-29T07:02:37;9.65;;;4.72;;
25263;SDS011;13211;51.796;5.808;2023-07-29T07:05:06;8.50;;;5.45;;
25263;SDS011;13211;51.796;5.808;2023-07-29T07:07:33;7.68;;;5.68;;
25263;SDS011;13211;51.796;5.808;2023-07-29T07:10:02;8.73;;;5.85;;
25263;SDS011;13211;51.796;5.808;2023-07-29T07:12:30;7.80;;;5.72;;
25263;SDS011;13211;51.796;5.808;2023-07-29T07:17:27;11.60;;;6.28;;
25263;SDS011;13211;51.796;5.808;2023-07-29T07:19:55;13.30;;;6.10;;
25263;SDS011;13211;51.796;5.808;2023-07-29T07:22:23;12.43;;;6.72;;
25263;SDS011;13211;51.796;5.808;2023-07-29T07:24:51;10.13;;;6.35;;
25263;SDS011;13211;51.796;5.808;2023-07-29T07:27:19;20.92;;;7.15;;
25263;SDS011;13211;51.796;5.808;2023-07-29T07:29:48;10.60;;;6.45;;
25263;SDS011;13211;51.796;5.808;2023-07-29T07:32:16;11.90;;;6.10;;
25263;SDS011;13211;51.796;5.808;2023-07-29T07:34:44;9.77;;;6.65;;
25263;SDS011;13211;51.796;5.808;2023-07-29T07:37:12;11.60;;;6.53;;
25263;SDS011;13211;51.796;5.808;2023-07-29T07:39:40;9.75;;;6.45;;
25263;SDS011;13211;51.796;5.808;2023-07-29T07:42:09;10.75;;;6.47;;
25263;SDS011;13211;51.796;5.808;2023-07-29T07:44:38;12.73;;;7.10;;
25263;SDS011;13211;51.796;5.808;2023-07-29T07:47:13;13.60;;;6.85;;
25263;SDS011;13211;51.796;5.808;2023-07-29T07:49:50;13.88;;;6.38;;
25263;SDS011;13211;51.796;5.808;2023-07-29T07:52:18;8.13;;;4.85;;
25263;SDS011;13211;51.796;5.808;2023-07-29T07:54:46;7.55;;;5.28;;
25263;SDS011;13211;51.796;5.808;2023-07-29T07:57:19;6.28;;;4.28;;
25263;SDS011;13211;51.796;5.808;2023-07-29T07:59:47;6.03;;;4.10;;
25263;SDS011;13211;51.796;5.808;2023-07-29T08:02:15;7.15;;;3.85;;
25263;SDS011;13211;51.796;5.808;2023-07-29T08:04:43;6.90;;;3.60;;
25263;SDS011;13211;51.796;5.808;2023-07-29T08:07:10;7.47;;;3.45;;
25263;SDS011;13211;51.796;5.808;2023-07-29T08:09:38;4.63;;;3.15;;
25263;SDS011;13211;51.796;5.808;2023-07-29T08:12:06;5.65;;;2.95;;
25263;SDS011;13211;51.796;5.808;2023-07-29T08:14:34;7.90;;;3.55;;
25263;SDS011;13211;51.796;5.808;2023-07-29T08:17:01;4.30;;;2.75;;
25263;SDS011;13211;51.796;5.808;2023-07-29T08:19:30;6.03;;;2.90;;
25263;SDS011;13211;51.796;5.808;2023-07-29T08:21:58;6.03;;;2.78;;
25263;SDS011;13211;51.796;5.808;2023-07-29T08:24:26;5.00;;;2.63;;
25263;SDS011;13211;51.796;5.808;2023-07-29T08:26:54;7.20;;;2.53;;
25263;SDS011;13211;51.796;5.808;2023-07-29T08:29:22;4.95;;;2.70;;
25263;SDS011;13211;51.796;5.808;2023-07-29T08:31:50;3.85;;;2.50;;
25263;SDS011;13211;51.796;5.808;2023-07-29T08:34:18;5.05;;;2.65;;
25263;SDS011;13211;51.796;5.808;2023-07-29T08:36:45;4.13;;;2.47;;
25263;SDS011;13211;51.796;5.808;2023-07-29T08:39:13;4.78;;;2.25;;
25263;SDS011;13211;51.796;5.808;2023-07-29T08:41:42;7.47;;;2.55;;
25263;SDS011;13211;51.796;5.808;2023-07-29T08:44:23;3.53;;;2.22;;
25263;SDS011;13211;51.796;5.808;2023-07-29T08:46:51;4.18;;;2.05;;
25263;SDS011;13211;51.796;5.808;2023-07-29T08:49:20;5.18;;;2.25;;
25263;SDS011;13211;51.796;5.808;2023-07-29T08:51:49;5.70;;;3.00;;
25263;SDS011;13211;51.796;5.808;2023-07-29T08:54:17;5.78;;;2.60;;
25263;SDS011;13211;51.796;5.808;2023-07-29T08:56:46;4.00;;;2.40;;
25263;SDS011;13211;51.796;5.808;2023-07-29T08:59:15;5.18;;;2.33;;
25263;SDS011;13211;51.796;5.808;2023-07-29T09:01:47;6.28;;;2.75;;
25263;SDS011;13211;51.796;5.808;2023-07-29T09:04:14;4.10;;;2.70;;
25263;SDS011;13211;51.796;5.808;2023-07-29T09:06:42;3.30;;;2.65;;
25263;SDS011;13211;51.796;5.808;2023-07-29T09:09:10;3.88;;;2.75;;
25263;SDS011;13211;51.796;5.808;2023-07-29T09:11:38;5.25;;;3.03;;
25263;SDS011;13211;51.796;5.808;2023-07-29T09:14:06;7.55;;;3.00;;
25263;SDS011;13211;51.796;5.808;2023-07-29T09:16:34;5.38;;;3.13;;
25263;SDS011;13211;51.796;5.808;2023-07-29T09:19:02;8.82;;;3.70;;
25263;SDS011;13211;51.796;5.808;2023-07-29T09:21:31;9.13;;;3.67;;
25263;SDS011;13211;51.796;5.808;2023-07-29T09:24:02;6.72;;;3.35;;
25263;SDS011;13211;51.796;5.808;2023-07-29T09:26:32;5.78;;;3.28;;
25263;SDS011;13211;51.796;5.808;2023-07-29T09:29:00;2.70;;;2.40;;
25263;SDS011;13211;51.796;5.808;2023-07-29T09:31:41;7.18;;;3.00;;
25263;SDS011;13211;51.796;5.808;2023-07-29T09:34:09;5.20;;;3.00;;
25263;SDS011;13211;51.796;5.808;2023-07-29T09:36:42;5.35;;;3.20;;
25263;SDS011;13211;51.796;5.808;2023-07-29T09:39:10;7.05;;;3.20;;
25263;SDS011;13211;51.796;5.808;2023-07-29T09:41:39;3.65;;;2.90;;
25263;SDS011;13211;51.796;5.808;2023-07-29T09:44:07;4.95;;;2.92;;
25263;SDS011;13211;51.796;5.808;2023-07-29T09:46:35;10.30;;;2.92;;
25263;SDS011;13211;51.796;5.808;2023-07-29T09:49:06;6.13;;;2.58;;
25263;SDS011;13211;51.796;5.808;2023-07-29T09:51:37;3.78;;;2.55;;
25263;SDS011;13211;51.796;5.808;2023-07-29T09:54:06;3.80;;;2.53;;
25263;SDS011;13211;51.796;5.808;2023-07-29T09:56:34;4.68;;;2.55;;
25263;SDS011;13211;51.796;5.808;2023-07-29T09:59:10;3.20;;;2.20;;
25263;SDS011;13211;51.796;5.808;2023-07-29T10:01:39;3.13;;;2.22;;
25263;SDS011;13211;51.796;5.808;2023-07-29T10:04:07;8.57;;;2.10;;
25263;SDS011;13211;51.796;5.808;2023-07-29T10:06:39;2.55;;;1.80;;
25263;SDS011;13211;51.796;5.808;2023-07-29T10:09:07;8.98;;;2.30;;
25263;SDS011;13211;51.796;5.808;2023-07-29T10:11:35;6.53;;;2.15;;
25263;SDS011;13211;51.796;5.808;2023-07-29T10:14:03;2.63;;;1.40;;
25263;SDS011;13211;51.796;5.808;2023-07-29T10:16:37;4.85;;;1.65;;
25263;SDS011;13211;51.796;5.808;2023-07-29T10:19:07;4.20;;;1.60;;
25263;SDS011;13211;51.796;5.808;2023-07-29T10:21:36;2.55;;;1.55;;
25263;SDS011;13211;51.796;5.808;2023-07-29T10:24:06;5.78;;;1.33;;
25263;SDS011;13211;51.796;5.808;2023-07-29T10:26:36;2.65;;;1.42;;
25263;SDS011;13211;51.796;5.808;2023-07-29T10:29:07;1.85;;;1.20;;
25263;SDS011;13211;51.796;5.808;2023-07-29T10:31:40;2.63;;;1.50;;
25263;SDS011;13211;51.796;5.808;2023-07-29T10:34:10;2.00;;;1.30;;
25263;SDS011;13211;51.796;5.808;2023-07-29T10:36:39;3.30;;;1.60;;
25263;SDS011;13211;51.796;5.808;2023-07-29T10:39:08;3.92;;;1.60;;
25263;SDS011;13211;51.796;5.808;2023-07-29T10:44:05;2.28;;;1.20;;
25263;SDS011;13211;51.796;5.808;2023-07-29T10:46:53;2.40;;;1.42;;
25263;SDS011;13211;51.796;5.808;2023-07-29T10:49:22;2.78;;;1.60;;
25263;SDS011;13211;51.796;5.808;2023-07-29T10:51:50;2.92;;;1.33;;
25263;SDS011;13211;51.796;5.808;2023-07-29T10:54:20;3.08;;;1.33;;
25263;SDS011;13211;51.796;5.808;2023-07-29T10:56:48;3.33;;;1.20;;
25263;SDS011;13211;51.796;5.808;2023-07-29T11:02:12;4.25;;;1.40;;
25263;SDS011;13211;51.796;5.808;2023-07-29T11:04:32;3.55;;;1.33;;
25263;SDS011;13211;51.796;5.808;2023-07-29T11:12:44;3.03;;;1.33;;
25263;SDS011;13211;51.796;5.808;2023-07-29T11:17:45;2.65;;;1.40;;
25263;SDS011;13211;51.796;5.808;2023-07-29T11:20:15;1.50;;;1.10;;
25263;SDS011;13211;51.796;5.808;2023-07-29T11:22:43;1.83;;;1.45;;
25263;SDS011;13211;51.796;5.808;2023-07-29T11:25:12;3.47;;;1.30;;
25263;SDS011;13211;51.796;5.808;2023-07-29T11:27:43;2.22;;;1.30;;
25263;SDS011;13211;51.796;5.808;2023-07-29T11:30:12;3.35;;;1.20;;
25263;SDS011;13211;51.796;5.808;2023-07-29T11:32:42;3.40;;;1.50;;
25263;SDS011;13211;51.796;5.808;2023-07-29T11:35:15;5.32;;;1.30;;
25263;SDS011;13211;51.796;5.808;2023-07-29T11:40:43;2.47;;;1.45;;
25263;SDS011;13211;51.796;5.808;2023-07-29T11:43:16;2.22;;;1.45;;
25263;SDS011;13211;51.796;5.808;2023-07-29T11:48:32;3.63;;;1.50;;
25263;SDS011;13211;51.796;5.808;2023-07-29T11:51:00;4.05;;;1.98;;
25263;SDS011;13211;51.796;5.808;2023-07-29T11:53:30;2.83;;;1.60;;
25263;SDS011;13211;51.796;5.808;2023-07-29T11:55:58;8.60;;;1.90;;
25263;SDS011;13211;51.796;5.808;2023-07-29T11:58:26;53.35;;;2.95;;
25263;SDS011;13211;51.796;5.808;2023-07-29T12:00:54;27.40;;;2.53;;
25263;SDS011;13211;51.796;5.808;2023-07-29T12:03:23;10.40;;;1.65;;
25263;SDS011;13211;51.796;5.808;2023-07-29T12:05:51;6.45;;;1.08;;
25263;SDS011;13211;51.796;5.808;2023-07-29T12:08:19;7.20;;;0.98;;
25263;SDS011;13211;51.796;5.808;2023-07-29T12:10:47;11.45;;;0.73;;
25263;SDS011;13211;51.796;5.808;2023-07-29T12:13:15;8.93;;;0.90;;
25263;SDS011;13211;51.796;5.808;2023-07-29T12:15:42;2.13;;;0.60;;
25263;SDS011;13211;51.796;5.808;2023-07-29T12:18:10;5.32;;;0.70;;
25263;SDS011;13211;51.796;5.808;2023-07-29T12:20:40;4.68;;;0.77;;
25263;SDS011;13211;51.796;5.808;2023-07-29T12:23:07;5.13;;;0.90;;
25263;SDS011;13211;51.796;5.808;2023-07-29T12:25:36;5.70;;;0.85;;
25263;SDS011;13211;51.796;5.808;2023-07-29T12:28:05;4.70;;;1.15;;
25263;SDS011;13211;51.796;5.808;2023-07-29T12:30:34;6.28;;;1.10;;
25263;SDS011;13211;51.796;5.808;2023-07-29T12:33:02;4.97;;;1.25;;
25263;SDS011;13211;51.796;5.808;2023-07-29T12:38:27;5.75;;;1.15;;
25263;SDS011;13211;51.796;5.808;2023-07-29T12:41:20;4.97;;;0.95;;
25263;SDS011;13211;51.796;5.808;2023-07-29T12:44:13;1.38;;;0.88;;
25263;SDS011;13211;51.796;5.808;2023-07-29T12:46:57;1.42;;;0.60;;
25263;SDS011;13211;51.796;5.808;2023-07-29T12:49:26;2.78;;;1.10;;
25263;SDS011;13211;51.796;5.808;2023-07-29T12:51:57;4.18;;;0.90;;
25263;SDS011;13211;51.796;5.808;2023-07-29T12:54:24;2.15;;;1.00;;
25263;SDS011;13211;51.796;5.808;2023-07-29T12:57:21;5.20;;;1.10;;
25263;SDS011;13211;51.796;5.808;2023-07-29T13:00:09;4.50;;;1.10;;
25263;SDS011;13211;51.796;5.808;2023-07-29T13:02:44;3.25;;;1.17;;
25263;SDS011;13211;51.796;5.808;2023-07-29T13:05:20;3.15;;;1.10;;
25263;SDS011;13211;51.796;5.808;2023-07-29T13:17:10;5.82;;;1.90;;
25263;SDS011;13211;51.796;5.808;2023-07-29T13:19:37;3.92;;;1.48;;
25263;SDS011;13211;51.796;5.808;2023-07-29T13:22:06;5.22;;;2.10;;
25263;SDS011;13211;51.796;5.808;2023-07-29T13:24:34;5.25;;;1.80;;
25263;SDS011;13211;51.796;5.808;2023-07-29T13:27:07;2.40;;;1.70;;
25263;SDS011;13211;51.796;5.808;2023-07-29T13:29:37;4.95;;;2.50;;
25263;SDS011;13211;51.796;5.808;2023-07-29T13:32:05;6.88;;;2.70;;
25263;SDS011;13211;51.796;5.808;2023-07-29T13:34:33;3.85;;;2.72;;
25263;SDS011;13211;51.796;5.808;2023-07-29T13:40:01;3.47;;;2.58;;
25263;SDS011;13211;51.796;5.808;2023-07-29T13:42:29;5.47;;;3.05;;
25263;SDS011;13211;51.796;5.808;2023-07-29T13:44:57;5.25;;;2.47;;
25263;SDS011;13211;51.796;5.808;2023-07-29T13:47:25;5.13;;;2.75;;
25263;SDS011;13211;51.796;5.808;2023-07-29T13:49:52;3.53;;;2.42;;
25263;SDS011;13211;51.796;5.808;2023-07-29T13:52:20;2.47;;;2.17;;
25263;SDS011;13211;51.796;5.808;2023-07-29T13:54:48;5.70;;;2.67;;
25263;SDS011;13211;51.796;5.808;2023-07-29T13:57:19;4.03;;;2.30;;
25263;SDS011;13211;51.796;5.808;2023-07-29T13:59:46;5.75;;;2.45;;
25263;SDS011;13211;51.796;5.808;2023-07-29T14:02:14;5.20;;;2.67;;
25263;SDS011;13211;51.796;5.808;2023-07-29T14:04:43;3.88;;;2.38;;
25263;SDS011;13211;51.796;5.808;2023-07-29T14:07:11;4.93;;;2.83;;
25263;SDS011;13211;51.796;5.808;2023-07-29T14:09:39;6.70;;;3.00;;
25263;SDS011;13211;51.796;5.808;2023-07-29T14:14:42;3.25;;;2.30;;
25263;SDS011;13211;51.796;5.808;2023-07-29T14:17:09;3.65;;;2.55;;
25263;SDS011;13211;51.796;5.808;2023-07-29T14:19:37;4.03;;;2.15;;
25263;SDS011;13211;51.796;5.808;2023-07-29T14:22:05;3.03;;;2.05;;
25263;SDS011;13211;51.796;5.808;2023-07-29T14:24:33;4.82;;;2.42;;
25263;SDS011;13211;51.796;5.808;2023-07-29T14:27:01;4.10;;;1.70;;
25263;SDS011;13211;51.796;5.808;2023-07-29T14:29:29;2.97;;;1.77;;
25263;SDS011;13211;51.796;5.808;2023-07-29T14:31:57;2.33;;;1.33;;
25263;SDS011;13211;51.796;5.808;2023-07-29T14:34:25;5.05;;;1.80;;
25263;SDS011;13211;51.796;5.808;2023-07-29T14:36:54;3.70;;;1.80;;
25263;SDS011;13211;51.796;5.808;2023-07-29T14:39:22;6.03;;;1.77;;
25263;SDS011;13211;51.796;5.808;2023-07-29T14:41:50;2.40;;;1.70;;
25263;SDS011;13211;51.796;5.808;2023-07-29T14:44:18;2.33;;;1.80;;
25263;SDS011;13211;51.796;5.808;2023-07-29T14:46:45;4.05;;;2.10;;
25263;SDS011;13211;51.796;5.808;2023-07-29T14:49:13;3.30;;;2.05;;
25263;SDS011;13211;51.796;5.808;2023-07-29T14:51:41;2.50;;;1.63;;
25263;SDS011;13211;51.796;5.808;2023-07-29T14:54:10;3.15;;;1.75;;
25263;SDS011;13211;51.796;5.808;2023-07-29T14:56:40;2.65;;;1.67;;
25263;SDS011;13211;51.796;5.808;2023-07-29T14:59:08;2.67;;;1.73;;
25263;SDS011;13211;51.796;5.808;2023-07-29T15:04:24;2.80;;;1.70;;
25263;SDS011;13211;51.796;5.808;2023-07-29T15:06:52;3.25;;;1.75;;
25263;SDS011;13211;51.796;5.808;2023-07-29T15:09:20;3.72;;;1.83;;
25263;SDS011;13211;51.796;5.808;2023-07-29T15:11:47;3.63;;;1.40;;
25263;SDS011;13211;51.796;5.808;2023-07-29T15:14:16;6.88;;;1.70;;
25263;SDS011;13211;51.796;5.808;2023-07-29T15:16:44;3.60;;;1.52;;
25263;SDS011;13211;51.796;5.808;2023-07-29T15:19:12;2.97;;;1.40;;
25263;SDS011;13211;51.796;5.808;2023-07-29T15:21:44;3.28;;;1.23;;
25263;SDS011;13211;51.796;5.808;2023-07-29T15:24:20;1.40;;;1.15;;
25263;SDS011;13211;51.796;5.808;2023-07-29T15:26:47;1.55;;;1.20;;
25263;SDS011;13211;51.796;5.808;2023-07-29T15:29:15;2.10;;;1.25;;
25263;SDS011;13211;51.796;5.808;2023-07-29T15:31:43;2.08;;;1.40;;
25263;SDS011;13211;51.796;5.808;2023-07-29T15:34:11;1.70;;;1.30;;
25263;SDS011;13211;51.796;5.808;2023-07-29T15:36:39;1.40;;;1.25;;
25263;SDS011;13211;51.796;5.808;2023-07-29T15:39:07;1.67;;;1.20;;
25263;SDS011;13211;51.796;5.808;2023-07-29T15:41:35;5.53;;;1.23;;
25263;SDS011;13211;51.796;5.808;2023-07-29T15:44:03;2.28;;;1.23;;
25263;SDS011;13211;51.796;5.808;2023-07-29T15:46:31;6.72;;;1.40;;
25263;SDS011;13211;51.796;5.808;2023-07-29T15:48:59;2.45;;;1.40;;